Time;durP1;ratioP1;P1;durP2;ratioP2;P2;SDS_P1;SDS_P2;PMS_P1;PMS_P2;Temp;Humidity;BMP_temperature;BMP_pressure;BME280_temperature;BME280_humidity;BME280_pressure;Samples;Min_cycle;Max_cycle;Signal;HPM_P1;HPM_P2
2023/05/13 00:08:06;;;;;;;1999.90;999.90;;;13.20;99.90;;;;;;6690841;88;20208;-77
2023/05/13 00:18:06;;;;;;;1999.90;999.90;;;13.10;99.90;;;;;;6692370;88;20662;-77
2023/05/13 00:28:07;;;;;;;1999.90;999.90;;;13.00;99.90;;;;;;6694546;88;20212;-78
2023/05/13 00:38:07;;;;;;;1999.90;999.90;;;12.90;99.90;;;;;;6697618;88;21178;-78
2023/05/13 00:48:08;;;;;;;1999.90;999.90;;;12.80;99.90;;;;;;6699748;88;20198;-78
2023/05/13 00:58:10;;;;;;;1999.90;999.90;;;12.60;99.90;;;;;;6698599;88;20567;-77
2023/05/13 01:08:38;;;;;;;1999.90;999.90;;;12.60;99.90;;;;;;6697686;88;20272;-77
2023/05/13 01:18:47;;;;;;;1999.90;999.90;;;12.70;99.90;;;;;;6695937;88;20200;-78
2023/05/13 01:28:49;;;;;;;1999.90;999.90;;;12.50;99.90;;;;;;6692538;88;20179;-78
2023/05/13 01:38:50;;;;;;;1999.90;999.90;;;12.40;99.90;;;;;;6720489;88;20248;-78
2023/05/13 01:48:51;;;;;;;1999.90;999.90;;;12.40;99.90;;;;;;6706442;88;20201;-78
2023/05/13 01:58:51;;;;;;;1999.90;999.90;;;12.40;99.90;;;;;;6700515;88;20209;-76
2023/05/13 02:08:52;;;;;;;1999.90;999.90;;;12.30;99.90;;;;;;6690150;88;20227;-76
2023/05/13 02:18:52;;;;;;;1999.90;999.90;;;12.20;99.90;;;;;;6695131;88;20759;-78
2023/05/13 02:28:53;;;;;;;1999.90;999.90;;;12.10;99.90;;;;;;6701157;88;20231;-78
2023/05/13 02:38:53;;;;;;;1999.90;999.90;;;12.10;99.90;;;;;;6702095;88;20182;-78
2023/05/13 02:48:54;;;;;;;1999.90;999.90;;;11.60;99.90;;;;;;6710171;88;20744;-77
2023/05/13 02:58:54;;;;;;;1999.90;999.90;;;11.50;99.90;;;;;;6717398;88;20324;-78
2023/05/13 03:08:55;;;;;;;1999.90;999.90;;;11.40;99.90;;;;;;6700192;88;20682;-77
2023/05/13 03:18:55;;;;;;;1999.90;999.90;;;11.20;99.90;;;;;;6702617;88;20761;-77
2023/05/13 03:28:56;;;;;;;1999.90;999.90;;;11.10;99.90;;;;;;6710123;88;20654;-78
2023/05/13 03:38:56;;;;;;;1999.90;999.90;;;10.90;99.90;;;;;;6718586;88;20205;-77
2023/05/13 03:48:57;;;;;;;1999.90;999.90;;;10.80;99.90;;;;;;6704168;88;20214;-78
2023/05/13 03:58:57;;;;;;;1999.90;999.90;;;10.70;99.90;;;;;;6707107;88;20190;-77
2023/05/13 04:08:58;;;;;;;1999.90;999.90;;;10.70;99.90;;;;;;6711288;88;20190;-77
2023/05/13 04:18:59;;;;;;;1999.90;999.90;;;10.70;99.90;;;;;;6702964;88;20235;-78
2023/05/13 04:28:59;;;;;;;1999.90;999.90;;;10.80;99.90;;;;;;6718231;88;20330;-78
2023/05/13 04:39:00;;;;;;;1999.90;999.90;;;10.70;99.90;;;;;;6713937;88;20254;-77
2023/05/13 04:49:00;;;;;;;1999.90;999.90;;;10.70;99.90;;;;;;6715564;88;20201;-78
2023/05/13 04:59:01;;;;;;;1999.90;999.90;;;10.80;99.90;;;;;;6702459;88;20777;-79
2023/05/13 05:09:01;;;;;;;1999.90;999.90;;;11.10;99.90;;;;;;6702439;88;20682;-78
2023/05/13 05:19:02;;;;;;;1999.90;999.90;;;10.80;99.90;;;;;;6699716;88;20308;-78
2023/05/13 05:29:03;;;;;;;1999.90;999.90;;;10.80;99.90;;;;;;6695953;88;20251;-79
2023/05/13 05:39:03;;;;;;;1999.90;999.90;;;10.80;99.90;;;;;;6709366;88;20172;-79
2023/05/13 05:49:04;;;;;;;1999.90;999.90;;;11.10;99.90;;;;;;6710364;88;20223;-80
2023/05/13 05:59:04;;;;;;;1999.90;999.90;;;11.40;99.90;;;;;;6727957;88;20213;-81
2023/05/13 06:09:05;;;;;;;1999.90;999.90;;;12.20;99.90;;;;;;6727497;88;20269;-80
2023/05/13 06:19:05;;;;;;;1999.90;999.90;;;12.80;99.90;;;;;;6723466;88;20209;-78
2023/05/13 06:29:06;;;;;;;1999.90;999.90;;;13.10;99.90;;;;;;6723611;88;20259;-80
2023/05/13 06:39:06;;;;;;;1999.90;999.90;;;13.50;99.90;;;;;;6723069;88;20273;-79
2023/05/13 06:49:07;;;;;;;1999.90;999.90;;;13.80;99.90;;;;;;6720519;88;20197;-78
2023/05/13 06:59:08;;;;;;;1999.90;999.90;;;13.80;99.90;;;;;;6717437;88;20200;-80
2023/05/13 07:09:08;;;;;;;1999.90;999.90;;;14.50;99.90;;;;;;6719190;88;20652;-79
2023/05/13 07:19:09;;;;;;;1999.90;999.90;;;15.10;99.90;;;;;;6699792;88;20202;-77
2023/05/13 07:29:09;;;;;;;1999.90;999.90;;;15.80;99.90;;;;;;6702756;88;20552;-79
2023/05/13 07:39:10;;;;;;;1999.90;999.90;;;16.00;99.90;;;;;;6700030;88;20202;-77
2023/05/13 07:49:11;;;;;;;1999.90;999.90;;;16.80;99.90;;;;;;6698397;88;20198;-74
2023/05/13 07:59:14;;;;;;;1999.90;999.90;;;17.10;99.90;;;;;;6713446;88;20213;-78
2023/05/13 08:09:15;;;;;;;1999.90;999.90;;;17.20;99.90;;;;;;6692333;88;20187;-80
2023/05/13 08:19:15;;;;;;;1999.90;999.90;;;18.10;99.90;;;;;;6689907;88;20203;-82
2023/05/13 08:29:16;;;;;;;1999.90;999.90;;;18.80;99.90;;;;;;6694557;88;20517;-82
2023/05/13 08:39:16;;;;;;;1999.90;999.90;;;19.20;99.90;;;;;;6687925;88;20214;-81
2023/05/13 08:49:17;;;;;;;1999.90;999.90;;;19.90;99.90;;;;;;6688494;88;20194;-80
2023/05/13 08:59:17;;;;;;;1999.90;999.90;;;20.60;99.90;;;;;;6688654;88;20194;-80
2023/05/13 09:09:18;;;;;;;1999.90;999.90;;;21.00;99.90;;;;;;6689213;89;20202;-82
2023/05/13 09:19:18;;;;;;;1999.90;999.90;;;21.90;99.90;;;;;;6704943;88;20257;-81
2023/05/13 09:29:24;;;;;;;1999.90;999.90;;;21.70;99.90;;;;;;6706039;88;20190;-81
2023/05/13 09:39:25;;;;;;;1999.90;999.90;;;22.60;99.90;;;;;;6710700;88;20232;-80
2023/05/13 09:49:27;;;;;;;1999.90;999.90;;;22.50;99.90;;;;;;6724325;88;20309;-82
2023/05/13 09:59:32;;;;;;;1999.90;999.90;;;23.00;99.90;;;;;;6708817;88;20191;-81
2023/05/13 10:09:37;;;;;;;1999.90;999.90;;;23.80;99.90;;;;;;6705706;88;20218;-81
2023/05/13 10:19:38;;;;;;;1999.90;999.90;;;24.10;99.90;;;;;;6703480;88;20213;-81
2023/05/13 10:29:39;;;;;;;1999.90;999.90;;;24.60;99.90;;;;;;6705673;88;20600;-81
2023/05/13 10:39:58;;;;;;;1999.90;999.90;;;25.30;98.90;;;;;;6705770;88;20694;-81
2023/05/13 10:50:03;;;;;;;1999.90;999.90;;;26.40;96.10;;;;;;6709152;88;20238;-79
2023/05/13 11:00:18;;;;;;;1999.90;999.90;;;27.10;95.50;;;;;;6704609;88;20215;-81
2023/05/13 11:10:28;;;;;;;1999.90;999.90;;;24.80;96.40;;;;;;6707945;88;20200;-81
2023/05/13 11:20:29;;;;;;;1999.90;999.90;;;22.70;92.20;;;;;;6705940;88;20234;-79
2023/05/13 11:30:30;;;;;;;1999.90;999.90;;;20.80;99.70;;;;;;6712217;88;20249;-79
2023/05/13 11:40:35;;;;;;;1999.90;999.90;;;16.10;99.90;;;;;;6707634;88;20323;-78
2023/05/13 11:50:35;;;;;;;1999.90;999.90;;;15.30;99.90;;;;;;6719042;77;20193;-77
2023/05/13 12:00:36;;;;;;;1999.90;999.90;;;15.10;99.90;;;;;;6714813;88;20689;-78
2023/05/13 12:10:43;;;;;;;1999.90;999.90;;;14.70;99.90;;;;;;6730159;88;20277;-79
2023/05/13 12:24:21;;;;;;;1999.90;999.90;;;14.40;99.90;;;;;;6781821;86;20222;-76
2023/05/13 12:34:34;;;;;;;1999.90;999.90;;;14.50;99.90;;;;;;6771520;87;20204;-75
2023/05/13 12:44:35;;;;;;;1999.90;999.90;;;14.80;99.90;;;;;;6769932;87;20205;-76
2023/05/13 12:54:35;;;;;;;1999.90;999.90;;;15.00;99.90;;;;;;6765503;87;20398;-76
2023/05/13 13:04:36;;;;;;;1999.90;999.90;;;15.50;99.90;;;;;;6768738;87;20306;-76
2023/05/13 13:14:36;;;;;;;1999.90;999.90;;;15.80;99.90;;;;;;6761527;87;20214;-76
2023/05/13 13:24:37;;;;;;;1999.90;999.90;;;15.90;99.90;;;;;;6768999;87;20250;-76
2023/05/13 13:34:37;;;;;;;1999.90;999.90;;;15.90;99.90;;;;;;6755477;87;20195;-76
2023/05/13 13:44:38;;;;;;;1999.90;999.90;;;15.80;99.90;;;;;;6755689;87;20196;-76
2023/05/13 13:54:38;;;;;;;1999.90;999.90;;;16.70;99.90;;;;;;6763115;87;20252;-77
2023/05/13 14:04:39;;;;;;;1999.90;999.90;;;17.10;99.90;;;;;;6754609;87;20717;-76
2023/05/13 14:14:39;;;;;;;1999.90;999.90;;;17.90;99.90;;;;;;6762341;87;20288;-75
2023/05/13 14:24:40;;;;;;;1999.90;999.90;;;18.00;99.90;;;;;;6759717;87;20193;-76
2023/05/13 14:34:41;;;;;;;1999.90;999.90;;;17.80;99.90;;;;;;6758051;87;20249;-76
2023/05/13 14:44:42;;;;;;;1999.90;999.90;;;17.50;99.90;;;;;;6756716;87;20210;-76
2023/05/13 14:54:42;;;;;;;1999.90;999.90;;;17.30;99.90;;;;;;6761131;87;20199;-77
2023/05/13 15:04:43;;;;;;;1999.90;999.90;;;16.80;99.90;;;;;;6757379;87;20742;-75
2023/05/13 15:14:53;;;;;;;1999.90;999.90;;;17.10;99.90;;;;;;6762832;87;20195;-77
2023/05/13 15:24:54;;;;;;;1999.90;999.90;;;17.70;99.90;;;;;;6738309;88;20192;-76
2023/05/13 15:34:54;;;;;;;1999.90;999.90;;;18.80;99.90;;;;;;6738522;88;20219;-78
2023/05/13 15:44:55;;;;;;;1999.90;999.90;;;19.20;99.90;;;;;;6741281;88;20185;-75
2023/05/13 15:54:55;;;;;;;1999.90;999.90;;;19.00;99.90;;;;;;6736596;88;20674;-75
2023/05/13 16:04:56;;;;;;;1999.90;999.90;;;18.50;99.90;;;;;;6735218;88;20697;-75
2023/05/13 16:14:56;;;;;;;1999.90;999.90;;;18.20;99.90;;;;;;6750083;87;20195;-77
2023/05/13 16:25:00;;;;;;;1999.90;999.90;;;17.40;99.90;;;;;;6776436;87;20192;-75
2023/05/13 16:35:01;;;;;;;1999.90;999.90;;;17.00;99.90;;;;;;6760848;87;20723;-76
2023/05/13 16:45:02;;;;;;;1999.90;999.90;;;17.00;99.90;;;;;;6767112;87;20187;-76
2023/05/13 16:55:02;;;;;;;1999.90;999.90;;;17.40;99.90;;;;;;6751234;87;20225;-75
2023/05/13 17:05:03;;;;;;;1999.90;999.90;;;18.00;99.90;;;;;;6754064;87;20184;-75
2023/05/13 17:15:04;;;;;;;1999.90;999.90;;;18.70;99.90;;;;;;6756269;87;20937;-75
2023/05/13 17:25:05;;;;;;;1999.90;999.90;;;19.80;99.90;;;;;;6756521;87;20192;-77
2023/05/13 17:35:06;;;;;;;1999.90;999.90;;;19.50;99.90;;;;;;6756465;87;20241;-76
2023/05/13 17:45:07;;;;;;;1999.90;999.90;;;19.10;99.90;;;;;;6759071;87;20256;-75
2023/05/13 17:55:08;;;;;;;1999.90;999.90;;;18.40;99.90;;;;;;6771008;87;20228;-77
2023/05/13 18:05:09;;;;;;;1999.90;999.90;;;18.30;99.90;;;;;;6757200;87;20220;-75
2023/05/13 18:15:09;;;;;;;1999.90;999.90;;;18.30;99.90;;;;;;6762488;87;20771;-76
2023/05/13 18:25:10;;;;;;;1999.90;999.90;;;17.60;99.90;;;;;;6760257;87;20196;-77
2023/05/13 18:35:11;;;;;;;1999.90;999.90;;;17.10;99.90;;;;;;6754151;87;20535;-76
2023/05/13 18:45:11;;;;;;;1999.90;999.90;;;16.90;99.90;;;;;;6757580;87;20251;-78
2023/05/13 18:55:12;;;;;;;1999.90;999.90;;;16.70;99.90;;;;;;6757840;87;20192;-77
2023/05/13 19:05:12;;;;;;;1999.90;999.90;;;16.40;99.90;;;;;;6757902;87;20519;-76
2023/05/13 19:15:13;;;;;;;1999.90;999.90;;;15.90;99.90;;;;;;6757433;87;20354;-76
2023/05/13 19:25:14;;;;;;;1999.90;999.90;;;15.60;99.90;;;;;;6760801;87;20753;-77
2023/05/13 19:35:15;;;;;;;1999.90;999.90;;;15.30;99.90;;;;;;6759895;87;20192;-78
2023/05/13 19:45:19;;;;;;;1999.90;999.90;;;15.10;99.90;;;;;;6759207;87;20187;-77
2023/05/13 19:55:20;;;;;;;1999.90;999.90;;;14.90;99.90;;;;;;6759662;87;20197;-77
2023/05/13 20:05:21;;;;;;;1999.90;999.90;;;14.70;99.90;;;;;;6756724;87;20253;-76
2023/05/13 20:15:22;;;;;;;1999.90;999.90;;;14.50;99.90;;;;;;6757758;87;20716;-77
2023/05/13 20:25:22;;;;;;;1999.90;999.90;;;14.40;99.90;;;;;;6755089;87;20748;-77
2023/05/13 20:35:23;;;;;;;1999.90;999.90;;;14.50;99.90;;;;;;6754106;87;20382;-77
2023/05/13 20:45:23;;;;;;;1999.90;999.90;;;14.30;99.90;;;;;;6761333;87;20179;-76
2023/05/13 20:55:24;;;;;;;1999.90;999.90;;;13.90;99.90;;;;;;6762028;87;20697;-76
2023/05/13 21:05:24;;;;;;;1999.90;999.90;;;13.90;99.90;;;;;;6764543;87;20263;-76
2023/05/13 21:15:25;;;;;;;1999.90;999.90;;;13.70;99.90;;;;;;6766142;87;20200;-75
2023/05/13 21:25:25;;;;;;;1999.90;999.90;;;13.40;99.90;;;;;;6762579;87;20221;-76
2023/05/13 21:35:26;;;;;;;1999.90;999.90;;;13.40;99.90;;;;;;6760442;87;20304;-76
2023/05/13 21:45:26;;;;;;;1999.90;999.90;;;13.20;99.90;;;;;;6762054;87;20668;-76
2023/05/13 21:55:27;;;;;;;1999.90;999.90;;;13.00;99.90;;;;;;6770284;87;20219;-76
2023/05/13 22:05:28;;;;;;;1999.90;999.90;;;12.80;99.90;;;;;;6758230;87;20175;-76
2023/05/13 22:15:28;;;;;;;1999.90;999.90;;;12.70;99.90;;;;;;6753585;87;20501;-76
2023/05/13 22:25:29;;;;;;;1999.90;999.90;;;12.40;99.90;;;;;;6760101;87;20239;-76
2023/05/13 22:35:30;;;;;;;1999.90;999.90;;;12.40;99.90;;;;;;6753343;87;20543;-76
2023/05/13 22:45:31;;;;;;;1999.90;999.90;;;12.20;99.90;;;;;;6755669;87;20200;-75
2023/05/13 22:55:31;;;;;;;1999.90;999.90;;;12.10;99.90;;;;;;6766521;87;20217;-75
2023/05/13 23:05:32;;;;;;;1999.90;999.90;;;11.90;99.90;;;;;;6752222;87;20189;-75
2023/05/13 23:15:35;;;;;;;1999.90;999.90;;;11.70;99.90;;;;;;6757559;87;20218;-75
2023/05/13 23:25:36;;;;;;;1999.90;999.90;;;11.50;99.90;;;;;;6757211;87;20272;-76
2023/05/13 23:35:36;;;;;;;1999.90;999.90;;;11.40;99.90;;;;;;6753774;87;20218;-75
2023/05/13 23:45:37;;;;;;;1999.90;999.90;;;11.30;99.90;;;;;;6753364;87;20208;-76
2023/05/13 23:55:37;;;;;;;1999.90;999.90;;;11.40;99.90;;;;;;6760447;76;20297;-78
